CheckWX is a tool to help pilots better visualize weather data.  It is not intended as a substitute for an official pre-flight weather briefing.

16:02:49 UTC

KTRI TAF
Tri-Cities Airport
Bristol/Johnson/Kingsport, Tennessee, USA
KTRI 181120Z 1812/1912 VRB02KT P6SM FEW050 FEW250 FM181600 31010G18KT P6SM FEW060 FM182300 34006KT P6SM FEW060 FM190100 VRB03KT P6SM SKC

Mar-18@
12:00 UTC

Mar-18 @ 12:00 UTC

Mar-18@
16:00 UTC

Mar-18 @ 16:00 UTC

KTRI 181120Z 1812/1912 VRB02KT P6SM FEW050 FEW250

Expired

Wind
  • Variable at 2 KTS
Cloud Levels
  • Few at 5,000' AGL
  • Few at 25,000' AGL

Mar-18@
16:00 UTC

Mar-18 @ 16:00 UTC

Mar-18@
23:00 UTC

Mar-18 @ 23:00 UTC

FM181600 31010G18KT P6SM FEW060

From

From Standard forecast or significant change

Wind
  • 310° at 10 KTS
  • {Gusting to 18 KTS
Cloud Levels
  • Few at 6,000' AGL

Mar-18@
23:00 UTC

Mar-18 @ 23:00 UTC

Mar-19@
01:00 UTC

Mar-19 @ 01:00 UTC

FM182300 34006KT P6SM FEW060

From

From Standard forecast or significant change

Wind
  • 340° at 6 KTS
Cloud Levels
  • Few at 6,000' AGL

Mar-19@
01:00 UTC

Mar-19 @ 01:00 UTC

Mar-19@
12:00 UTC

Mar-19 @ 12:00 UTC

FM190100 VRB03KT P6SM SKC

From

From Standard forecast or significant change

Wind
  • Variable at 3 KTS
Cloud Levels
  • Clear skies